Myrefisk — LION — position and weather

sailwx.info

Track history (hours):
 
Tides and Currents Weather Stations Pressure Air Temp Water Temp Dewpoint Dewpoint Depression Visibility Wind Speed Wind Dir Waves Ship Positions

Myrefisk

Last reported at 2017-Dec-21 18:03 UTC. Time now 2018-Feb-21 07:42 UTC.
Position N 67°37' E 014°31'.
Warning: this ship's position is months out of date.

Length 27 m; draft 4.9 m.

Type: Fishing. MMSI: 257855500.

Date/timePositionNaut miles runAvg speedWind from/ knotsBaromVisibWave heightAir tempDewpointWater temp
2017-Dec-21 18:03N 67°37' E 014°31'1 7.6
2017-Dec-21 17:55N 67°36' E 014°31'3 7.7
2017-Dec-21 17:31N 67°33' E 014°30'4 7.8
2017-Dec-21 17:01N 67°29' E 014°29'4 7.9
2017-Dec-21 16:31N 67°25' E 014°27'4 8.3
2017-Dec-21 16:00N 67°21' E 014°24'4 7.8
2017-Dec-21 15:30N 67°17' E 014°22'0 0.8
2017-Dec-21 15:01N 67°17' E 014°23'0 0.0
2017-Dec-21 14:31N 67°17' E 014°23'0 0.0
2017-Dec-21 14:01N 67°17' E 014°23'0 0.0
2017-Dec-21 13:31N 67°17' E 014°23'0 0.0
2017-Dec-21 13:01N 67°17' E 014°23'0 0.1
2017-Dec-21 12:30N 67°17' E 014°23'0 0.4
2017-Dec-21 12:00N 67°17' E 014°23'0 0.0
2017-Dec-21 11:31N 67°17' E 014°23'0 0.0
2017-Dec-21 11:00N 67°17' E 014°23'0 0.0
2017-Dec-21 10:30N 67°17' E 014°23'0 0.0
2017-Dec-21 10:00N 67°17' E 014°23'0 0.0
2017-Dec-21 09:30N 67°17' E 014°23'0 0.0
2017-Dec-21 09:00N 67°17' E 014°23'0 0.0
2017-Dec-21 08:30N 67°17' E 014°23'0 0.0
2017-Dec-21 08:01N 67°17' E 014°23'0 0.0
2017-Dec-21 07:30N 67°17' E 014°23'0 0.0
2017-Dec-21 07:01N 67°17' E 014°23'0 0.0
2017-Dec-21 06:31N 67°17' E 014°23'0 0.0
2017-Dec-21 06:01N 67°17' E 014°23'0 0.0
2017-Dec-21 05:31N 67°17' E 014°23'0 0.0
2017-Dec-21 05:01N 67°17' E 014°23'0 0.0
2017-Dec-21 04:30N 67°17' E 014°23'0 0.0
2017-Dec-21 04:01N 67°17' E 014°23'0 0.0
2017-Dec-21 03:31N 67°17' E 014°23'0 0.0
2017-Dec-21 03:01N 67°17' E 014°23'0 0.0
2017-Dec-21 02:31N 67°17' E 014°23'0 0.0
2017-Dec-21 02:00N 67°17' E 014°23'0 0.0
2017-Dec-21 01:31N 67°17' E 014°23'0 0.0
2017-Dec-21 01:01N 67°17' E 014°23'0 0.0
2017-Dec-21 00:30N 67°17' E 014°23'0 0.0
2017-Dec-21 00:00N 67°17' E 014°23'0 0.0
2017-Dec-20 23:30N 67°17' E 014°23'0 0.0
2017-Dec-20 23:01N 67°17' E 014°23'0 0.0
2017-Dec-20 22:31N 67°17' E 014°23'0 0.0
2017-Dec-20 22:01N 67°17' E 014°23'0 0.0
2017-Dec-20 21:31N 67°17' E 014°23'0 0.0
2017-Dec-20 21:01N 67°17' E 014°23'0 0.0
2017-Dec-20 20:31N 67°17' E 014°23'2 4.2
2017-Dec-20 20:00N 67°19' E 014°24'4 7.2
2017-Dec-20 19:31N 67°22' E 014°28'4 7.2
2017-Dec-20 19:00N 67°26' E 014°32'4 7.5
2017-Dec-20 18:31N 67°29' E 014°37'4 7.2
2017-Dec-20 18:00N 67°32' E 014°41'6 7.2
2017-Dec-20 17:14N 67°37' E 014°47'2 7.8
2017-Dec-20 17:00N 67°39' E 014°44'106 5.9
2017-Dec-19 22:59N 69°06' E 017°27'3 7.1
2017-Dec-19 22:30N 69°07' E 017°36'1 0.0
2017-Dec-17 23:21N 69°07' E 017°39'3 8.0
2017-Dec-17 23:01N 69°06' E 017°32'  
Track history (hours):
 
Tides and Currents Weather Stations Pressure Air Temp Water Temp Dewpoint Dewpoint Depression Visibility Wind Speed Wind Dir Waves Ship Positions

Myrefisk

Last reported at 2017-Dec-21 18:03 UTC. Time now 2018-Feb-21 07:43 UTC.
Position N 67°37' E 014°31'.
Warning: this ship's position is months out of date.

Length 27 m; draft 4.9 m.

Type: Fishing. MMSI: 257855500.

Date/timePositionNaut miles runAvg speedWind from/ knotsBaromVisibWave heightAir tempDewpointWater temp
2017-Dec-21 18:03N 67°37' E 014°31'1 7.6
2017-Dec-21 17:55N 67°36' E 014°31'3 7.7
2017-Dec-21 17:31N 67°33' E 014°30'4 7.8
2017-Dec-21 17:01N 67°29' E 014°29'4 7.9
2017-Dec-21 16:31N 67°25' E 014°27'4 8.3
2017-Dec-21 16:00N 67°21' E 014°24'4 7.8
2017-Dec-21 15:30N 67°17' E 014°22'0 0.8
2017-Dec-21 15:01N 67°17' E 014°23'0 0.0
2017-Dec-21 14:31N 67°17' E 014°23'0 0.0
2017-Dec-21 14:01N 67°17' E 014°23'0 0.0
2017-Dec-21 13:31N 67°17' E 014°23'0 0.0
2017-Dec-21 13:01N 67°17' E 014°23'0 0.1
2017-Dec-21 12:30N 67°17' E 014°23'0 0.4
2017-Dec-21 12:00N 67°17' E 014°23'0 0.0
2017-Dec-21 11:31N 67°17' E 014°23'0 0.0
2017-Dec-21 11:00N 67°17' E 014°23'0 0.0
2017-Dec-21 10:30N 67°17' E 014°23'0 0.0
2017-Dec-21 10:00N 67°17' E 014°23'0 0.0
2017-Dec-21 09:30N 67°17' E 014°23'0 0.0
2017-Dec-21 09:00N 67°17' E 014°23'0 0.0
2017-Dec-21 08:30N 67°17' E 014°23'0 0.0
2017-Dec-21 08:01N 67°17' E 014°23'0 0.0
2017-Dec-21 07:30N 67°17' E 014°23'0 0.0
2017-Dec-21 07:01N 67°17' E 014°23'0 0.0
2017-Dec-21 06:31N 67°17' E 014°23'0 0.0
2017-Dec-21 06:01N 67°17' E 014°23'0 0.0
2017-Dec-21 05:31N 67°17' E 014°23'0 0.0
2017-Dec-21 05:01N 67°17' E 014°23'0 0.0
2017-Dec-21 04:30N 67°17' E 014°23'0 0.0
2017-Dec-21 04:01N 67°17' E 014°23'0 0.0
2017-Dec-21 03:31N 67°17' E 014°23'0 0.0
2017-Dec-21 03:01N 67°17' E 014°23'0 0.0
2017-Dec-21 02:31N 67°17' E 014°23'0 0.0
2017-Dec-21 02:00N 67°17' E 014°23'0 0.0
2017-Dec-21 01:31N 67°17' E 014°23'0 0.0
2017-Dec-21 01:01N 67°17' E 014°23'0 0.0
2017-Dec-21 00:30N 67°17' E 014°23'0 0.0
2017-Dec-21 00:00N 67°17' E 014°23'0 0.0
2017-Dec-20 23:30N 67°17' E 014°23'0 0.0
2017-Dec-20 23:01N 67°17' E 014°23'0 0.0
2017-Dec-20 22:31N 67°17' E 014°23'0 0.0
2017-Dec-20 22:01N 67°17' E 014°23'0 0.0
2017-Dec-20 21:31N 67°17' E 014°23'0 0.0
2017-Dec-20 21:01N 67°17' E 014°23'0 0.0
2017-Dec-20 20:31N 67°17' E 014°23'2 4.2
2017-Dec-20 20:00N 67°19' E 014°24'4 7.2
2017-Dec-20 19:31N 67°22' E 014°28'4 7.2
2017-Dec-20 19:00N 67°26' E 014°32'4 7.5
2017-Dec-20 18:31N 67°29' E 014°37'4 7.2
2017-Dec-20 18:00N 67°32' E 014°41'6 7.2
2017-Dec-20 17:14N 67°37' E 014°47'2 7.8
2017-Dec-20 17:00N 67°39' E 014°44'106 5.9
2017-Dec-19 22:59N 69°06' E 017°27'3 7.1
2017-Dec-19 22:30N 69°07' E 017°36'1 0.0
2017-Dec-17 23:21N 69°07' E 017°39'3 8.0
2017-Dec-17 23:01N 69°06' E 017°32'  

Dump ship's entire track history